Time;durP1;ratioP1;P1;durP2;ratioP2;P2;SDS_P1;SDS_P2;PMS_P1;PMS_P2;Temp;Humidity;BMP_temperature;BMP_pressure;BME280_temperature;BME280_humidity;BME280_pressure;Samples;Min_cycle;Max_cycle;Signal;HPM_P1;HPM_P2
2022/04/06 00:01:10;;;;;;;;;;;9.10;99.90;;;;;;5055187;28;19930;-77
2022/04/06 00:03:35;;;;;;;;;;;9.20;99.90;;;;;;5055230;28;19913;-77
2022/04/06 00:06:01;;;;;;;;;;;9.20;99.90;;;;;;5055927;28;19940;-77
2022/04/06 00:08:27;;;;;;;;;;;9.10;99.90;;;;;;5054824;28;20310;-77
2022/04/06 00:10:52;;;;;;;;;;;9.10;99.90;;;;;;5055013;28;20016;-76
2022/04/06 00:13:18;;;;;;;;;;;9.10;99.90;;;;;;5055682;28;20303;-78
2022/04/06 00:15:43;;;;;;;;;;;9.10;99.90;;;;;;5056294;28;19935;-77
2022/04/06 00:18:09;;;;;;;;;;;9.10;99.90;;;;;;5054918;28;19913;-78
2022/04/06 00:20:35;;;;;;;;;;;9.10;99.90;;;;;;5055732;28;19923;-77
2022/04/06 00:23:00;;;;;;;;;;;9.10;99.90;;;;;;5056071;28;20012;-77
2022/04/06 00:25:26;;;;;;;;;;;9.10;99.90;;;;;;5054592;28;19963;-77
2022/04/06 00:27:52;;;;;;;;;;;9.10;99.90;;;;;;5055105;28;19913;-77
2022/04/06 00:30:17;;;;;;;;;;;9.00;99.90;;;;;;5055864;28;19920;-79
2022/04/06 00:32:43;;;;;;;;;;;9.00;99.90;;;;;;5054643;28;19921;-76
2022/04/06 00:37:52;;;;;;;;;;;9.10;99.90;;;;;;5054800;28;20326;-77
2022/04/06 00:40:19;;;;;;;;;;;9.00;99.90;;;;;;5054754;28;19913;-77
2022/04/06 00:42:46;;;;;;;;;;;9.00;99.90;;;;;;5054073;28;20264;-77
2022/04/06 00:45:13;;;;;;;;;;;9.00;99.90;;;;;;4956994;28;3000971;-78
2022/04/06 00:47:39;;;;;;;;;;;9.00;99.90;;;;;;5043176;28;19920;-77
2022/04/06 00:50:05;;;;;;;;;;;9.00;99.90;;;;;;5071749;28;20220;-76
2022/04/06 00:52:30;;;;;;;;;;;9.00;99.90;;;;;;5072158;28;19927;-76
2022/04/06 00:54:56;;;;;;;;;;;9.00;99.90;;;;;;5042883;28;19917;-80
2022/04/06 00:57:22;;;;;;;;;;;9.00;99.90;;;;;;5075107;28;19921;-79
2022/04/06 00:59:48;;;;;;;;;;;9.00;99.90;;;;;;5056425;28;19916;-76
2022/04/06 01:02:14;;;;;;;;;;;9.10;99.90;;;;;;5072705;28;19912;-76
2022/04/06 01:04:39;;;;;;;;;;;9.00;99.90;;;;;;5075531;28;20015;-77
2022/04/06 01:07:05;;;;;;;;;;;9.00;99.90;;;;;;5057214;28;19974;-83
2022/04/06 01:09:31;;;;;;;;;;;9.00;99.90;;;;;;5058244;28;19934;-77
2022/04/06 01:11:56;;;;;;;;;;;9.00;99.90;;;;;;5057812;28;19932;-76
2022/04/06 01:14:22;;;;;;;;;;;9.00;99.90;;;;;;5075990;28;19944;-77
2022/04/06 01:16:58;;;;;;;;;;;9.00;99.90;;;;;;5076112;28;19921;-80
2022/04/06 01:19:28;;;;;;;;;;;9.00;99.90;;;;;;5058251;28;19912;-77
2022/04/06 01:21:54;;;;;;;;;;;9.00;99.90;;;;;;5075680;28;19913;-76
2022/04/06 01:24:20;;;;;;;;;;;9.00;99.90;;;;;;5075766;28;19938;-77
2022/04/06 01:26:45;;;;;;;;;;;9.00;99.90;;;;;;5075683;28;19952;-77
2022/04/06 01:29:11;;;;;;;;;;;9.00;99.90;;;;;;5075231;28;20354;-76
2022/04/06 01:31:36;;;;;;;;;;;9.10;99.90;;;;;;5057148;28;20000;-76
2022/04/06 01:34:02;;;;;;;;;;;9.00;99.90;;;;;;5074192;28;19927;-76
2022/04/06 01:36:27;;;;;;;;;;;9.10;99.90;;;;;;5075112;28;20307;-76
2022/04/06 01:38:53;;;;;;;;;;;9.10;99.90;;;;;;5075390;28;20318;-76
2022/04/06 01:41:18;;;;;;;;;;;9.10;99.90;;;;;;5074967;28;19939;-77
2022/04/06 01:43:45;;;;;;;;;;;9.10;99.90;;;;;;5075328;28;19913;-77
2022/04/06 01:46:10;;;;;;;;;;;9.10;99.90;;;;;;5074907;28;19924;-76
2022/04/06 01:52:11;;;;;;;;;;;9.10;99.90;;;;;;5075439;28;19965;-77
2022/04/06 01:54:05;;;;;;;;;;;9.10;99.90;;;;;;5067546;28;20207;-78
2022/04/06 01:56:31;;;;;;;;;;;9.10;99.90;;;;;;5075354;28;19916;-77
2022/04/06 01:58:57;;;;;;;;;;;9.10;99.90;;;;;;5075172;28;19912;-77
2022/04/06 02:01:23;;;;;;;;;;;9.10;99.90;;;;;;5040802;28;19965;-77
2022/04/06 02:03:48;;;;;;;;;;;9.10;99.90;;;;;;5057529;28;19916;-76
2022/04/06 02:06:14;;;;;;;;;;;9.10;99.90;;;;;;5067301;28;19924;-78
2022/04/06 02:08:39;;;;;;;;;;;9.10;99.90;;;;;;5057594;28;19925;-79
2022/04/06 02:11:06;;;;;;;;;;;9.10;99.90;;;;;;5056840;28;20042;-78
2022/04/06 02:13:32;;;;;;;;;;;9.10;99.90;;;;;;5075184;28;19919;-77
2022/04/06 02:15:57;;;;;;;;;;;9.10;99.90;;;;;;5074969;28;19913;-76
2022/04/06 02:18:23;;;;;;;;;;;9.10;99.90;;;;;;5040499;28;19920;-77
2022/04/06 02:20:49;;;;;;;;;;;9.10;99.90;;;;;;5075014;28;19927;-77
2022/04/06 02:23:14;;;;;;;;;;;9.10;99.90;;;;;;5057348;28;20354;-77
2022/04/06 02:25:40;;;;;;;;;;;9.10;99.90;;;;;;5062868;28;19941;-77
2022/04/06 02:28:06;;;;;;;;;;;9.10;99.90;;;;;;5056984;28;20007;-79
2022/04/06 02:30:31;;;;;;;;;;;9.10;99.90;;;;;;5038541;28;19916;-77
2022/04/06 02:32:57;;;;;;;;;;;9.10;99.90;;;;;;5072270;28;20204;-76
2022/04/06 02:35:22;;;;;;;;;;;9.10;99.90;;;;;;5073932;28;19998;-77
2022/04/06 02:37:48;;;;;;;;;;;9.10;99.90;;;;;;5074708;28;19913;-77
2022/04/06 02:40:14;;;;;;;;;;;9.10;99.90;;;;;;5057051;28;19913;-77
2022/04/06 02:42:40;;;;;;;;;;;9.10;99.90;;;;;;5056787;28;19920;-78
2022/04/06 02:45:06;;;;;;;;;;;9.00;99.90;;;;;;5074577;28;20011;-76
2022/04/06 02:47:31;;;;;;;;;;;9.00;99.90;;;;;;5074027;28;19919;-79
2022/04/06 02:49:57;;;;;;;;;;;9.00;99.90;;;;;;5056514;28;19974;-77
2022/04/06 02:52:22;;;;;;;;;;;9.00;99.90;;;;;;5073509;28;19921;-77
2022/04/06 02:54:48;;;;;;;;;;;9.00;99.90;;;;;;5055684;28;19916;-77
2022/04/06 02:57:13;;;;;;;;;;;8.90;99.90;;;;;;5074134;28;19909;-77
2022/04/06 02:59:40;;;;;;;;;;;8.90;99.90;;;;;;5074417;28;19919;-76
2022/04/06 03:02:06;;;;;;;;;;;8.90;99.90;;;;;;5070792;28;20277;-77
2022/04/06 03:04:31;;;;;;;;;;;8.90;99.90;;;;;;5056775;28;19954;-77
2022/04/06 03:06:57;;;;;;;;;;;8.80;99.90;;;;;;5056767;28;19956;-76
2022/04/06 03:09:22;;;;;;;;;;;8.80;99.90;;;;;;5066335;28;19916;-77
2022/04/06 03:11:48;;;;;;;;;;;8.80;99.90;;;;;;5056226;28;19912;-77
2022/04/06 03:14:13;;;;;;;;;;;8.70;99.90;;;;;;5074482;28;19963;-77
2022/04/06 03:16:39;;;;;;;;;;;8.80;99.90;;;;;;5069568;28;19944;-77
2022/04/06 03:19:05;;;;;;;;;;;8.70;99.90;;;;;;5073223;28;19912;-76
2022/04/06 03:21:30;;;;;;;;;;;8.70;99.90;;;;;;5072269;28;19963;-77
2022/04/06 03:23:56;;;;;;;;;;;8.70;99.90;;;;;;5075491;28;19912;-78
2022/04/06 03:26:22;;;;;;;;;;;8.80;99.90;;;;;;5076677;28;19912;-76
2022/04/06 03:28:47;;;;;;;;;;;8.80;99.90;;;;;;5059994;28;20023;-76
2022/04/06 03:31:13;;;;;;;;;;;8.80;99.90;;;;;;5078021;28;19991;-80
2022/04/06 03:33:38;;;;;;;;;;;8.80;99.90;;;;;;5077907;28;19922;-77
2022/04/06 03:36:04;;;;;;;;;;;8.70;99.90;;;;;;5077740;28;19915;-76
2022/04/06 03:38:30;;;;;;;;;;;8.80;99.90;;;;;;5076683;28;20229;-77
2022/04/06 03:40:55;;;;;;;;;;;8.80;99.90;;;;;;5076591;28;19923;-77
2022/04/06 03:43:21;;;;;;;;;;;8.70;99.90;;;;;;5060113;28;20235;-79
2022/04/06 03:45:47;;;;;;;;;;;8.70;99.90;;;;;;5056106;28;19928;-78
2022/04/06 03:48:12;;;;;;;;;;;8.80;99.90;;;;;;5056596;28;19935;-77
2022/04/06 03:50:38;;;;;;;;;;;8.80;99.90;;;;;;5056613;28;20214;-77
2022/04/06 03:53:03;;;;;;;;;;;8.70;99.90;;;;;;5056495;28;19919;-76
2022/04/06 03:55:29;;;;;;;;;;;8.70;99.90;;;;;;5057678;28;19913;-76
2022/04/06 03:57:55;;;;;;;;;;;8.70;99.90;;;;;;5057561;28;19960;-77
2022/04/06 04:00:20;;;;;;;;;;;8.70;99.90;;;;;;5057729;28;19917;-77
2022/04/06 04:02:46;;;;;;;;;;;8.70;99.90;;;;;;5055842;28;19920;-76
2022/04/06 04:05:12;;;;;;;;;;;8.60;99.90;;;;;;5056641;28;19913;-77
2022/04/06 04:07:37;;;;;;;;;;;8.70;99.90;;;;;;5056581;28;20320;-76
2022/04/06 04:10:07;;;;;;;;;;;8.70;99.90;;;;;;5057500;28;19967;-77
2022/04/06 04:12:33;;;;;;;;;;;8.70;99.90;;;;;;5056048;28;20316;-77
2022/04/06 04:14:59;;;;;;;;;;;8.70;99.90;;;;;;5053462;28;20366;-77
2022/04/06 04:17:24;;;;;;;;;;;8.70;99.90;;;;;;5057188;28;19917;-77
2022/04/06 04:19:50;;;;;;;;;;;8.70;99.90;;;;;;5057312;28;20387;-77
2022/04/06 04:22:15;;;;;;;;;;;8.60;99.90;;;;;;5056025;28;20227;-76
2022/04/06 04:24:41;;;;;;;;;;;8.60;99.90;;;;;;5057105;28;19912;-78
2022/04/06 04:27:07;;;;;;;;;;;8.60;99.90;;;;;;5055051;28;19913;-77
2022/04/06 04:29:33;;;;;;;;;;;8.60;99.90;;;;;;5055511;28;19924;-77
2022/04/06 04:31:58;;;;;;;;;;;8.60;99.90;;;;;;5055287;28;19913;-76
2022/04/06 04:34:24;;;;;;;;;;;8.70;99.90;;;;;;5055156;28;19955;-77
2022/04/06 04:36:49;;;;;;;;;;;8.60;99.90;;;;;;5056419;28;19917;-77
2022/04/06 04:39:15;;;;;;;;;;;8.60;99.90;;;;;;5055346;28;19921;-77
2022/04/06 04:41:41;;;;;;;;;;;8.60;99.90;;;;;;5055617;28;19993;-77
2022/04/06 04:44:06;;;;;;;;;;;8.60;99.90;;;;;;5056053;28;19917;-77
2022/04/06 04:46:32;;;;;;;;;;;8.60;99.90;;;;;;5074470;28;19921;-75
2022/04/06 04:48:58;;;;;;;;;;;8.60;99.90;;;;;;5075256;28;20364;-77
2022/04/06 04:51:23;;;;;;;;;;;8.50;99.90;;;;;;5059081;28;19951;-76
2022/04/06 04:53:49;;;;;;;;;;;8.50;99.90;;;;;;5058694;28;20245;-76
2022/04/06 04:56:16;;;;;;;;;;;8.50;99.90;;;;;;5076739;28;20212;-77
2022/04/06 04:58:41;;;;;;;;;;;8.50;99.90;;;;;;5076661;28;20413;-78
2022/04/06 05:01:07;;;;;;;;;;;8.50;99.90;;;;;;5058918;28;19924;-76
2022/04/06 05:03:33;;;;;;;;;;;8.50;99.90;;;;;;5076760;28;19913;-77
2022/04/06 05:05:59;;;;;;;;;;;8.50;99.90;;;;;;5058448;28;19935;-76
2022/04/06 05:08:24;;;;;;;;;;;8.50;99.90;;;;;;5076470;28;19912;-76
2022/04/06 05:10:50;;;;;;;;;;;8.60;99.90;;;;;;5058258;28;19974;-77
2022/04/06 05:13:17;;;;;;;;;;;8.50;99.90;;;;;;5076129;28;19991;-78
2022/04/06 05:15:46;;;;;;;;;;;8.50;99.90;;;;;;5076544;28;19913;-76
2022/04/06 05:18:12;;;;;;;;;;;8.60;99.90;;;;;;5058290;28;20381;-77
2022/04/06 05:20:38;;;;;;;;;;;8.60;99.90;;;;;;5076226;28;19975;-76
2022/04/06 05:23:03;;;;;;;;;;;8.60;99.90;;;;;;5076114;28;20238;-77
2022/04/06 05:25:29;;;;;;;;;;;8.60;99.90;;;;;;5052662;28;19921;-76
2022/04/06 05:27:55;;;;;;;;;;;8.60;99.90;;;;;;5072990;28;19923;-76
2022/04/06 05:30:25;;;;;;;;;;;8.60;99.90;;;;;;5058016;28;20299;-76
2022/04/06 05:32:51;;;;;;;;;;;8.60;99.90;;;;;;5075959;28;20016;-77
2022/04/06 05:35:17;;;;;;;;;;;8.70;99.90;;;;;;5075755;28;20321;-77
2022/04/06 05:37:43;;;;;;;;;;;8.70;99.90;;;;;;5076192;28;19912;-77
2022/04/06 05:40:10;;;;;;;;;;;8.70;99.90;;;;;;5049279;28;19916;-77
2022/04/06 05:42:36;;;;;;;;;;;8.70;99.90;;;;;;5048430;28;19916;-79
2022/04/06 05:45:02;;;;;;;;;;;8.70;99.90;;;;;;5056868;28;19970;-78
2022/04/06 05:47:28;;;;;;;;;;;8.80;99.90;;;;;;5075591;28;19923;-77
2022/04/06 05:49:54;;;;;;;;;;;8.80;99.90;;;;;;5058272;28;19917;-76
2022/04/06 05:52:19;;;;;;;;;;;8.80;99.90;;;;;;5057586;28;19963;-76
2022/04/06 05:54:45;;;;;;;;;;;8.80;99.90;;;;;;5075567;28;20367;-78
2022/04/06 05:57:11;;;;;;;;;;;8.80;99.90;;;;;;5075347;28;19912;-77
2022/04/06 05:59:36;;;;;;;;;;;8.90;99.90;;;;;;5057744;28;19912;-77
2022/04/06 06:02:03;;;;;;;;;;;8.90;99.90;;;;;;5075473;28;19916;-77
2022/04/06 06:04:28;;;;;;;;;;;8.90;99.90;;;;;;5070620;28;20004;-77
2022/04/06 06:06:54;;;;;;;;;;;8.90;99.90;;;;;;5074753;28;20256;-77
2022/04/06 06:09:19;;;;;;;;;;;8.90;99.90;;;;;;5074082;28;20235;-77
2022/04/06 06:11:45;;;;;;;;;;;9.00;99.90;;;;;;5069301;28;20304;-77
2022/04/06 06:14:10;;;;;;;;;;;9.00;99.90;;;;;;5052467;28;20311;-76
2022/04/06 06:16:36;;;;;;;;;;;9.00;99.90;;;;;;5071175;28;20318;-77
2022/04/06 06:19:02;;;;;;;;;;;9.00;99.90;;;;;;5073412;28;20317;-75
2022/04/06 06:21:31;;;;;;;;;;;9.00;99.90;;;;;;5072472;28;19917;-77
2022/04/06 06:24:00;;;;;;;;;;;9.00;99.90;;;;;;5073510;28;19928;-76
2022/04/06 06:26:25;;;;;;;;;;;9.00;99.90;;;;;;5073043;28;19920;-76
2022/04/06 06:28:51;;;;;;;;;;;9.00;99.90;;;;;;5056567;28;19917;-78
2022/04/06 06:31:17;;;;;;;;;;;9.00;99.90;;;;;;5073055;28;19952;-77
2022/04/06 06:33:42;;;;;;;;;;;9.00;99.90;;;;;;5073809;28;20215;-76
2022/04/06 06:36:08;;;;;;;;;;;9.00;99.90;;;;;;5058840;28;19921;-77
2022/04/06 06:38:33;;;;;;;;;;;9.10;99.90;;;;;;5073277;28;19995;-76
2022/04/06 06:40:59;;;;;;;;;;;9.10;99.90;;;;;;5040832;28;19916;-78
2022/04/06 06:43:24;;;;;;;;;;;9.10;99.90;;;;;;5074099;28;19962;-77
2022/04/06 06:45:50;;;;;;;;;;;9.10;99.90;;;;;;5074885;28;19921;-77
2022/04/06 06:48:15;;;;;;;;;;;9.10;99.90;;;;;;5057229;28;19950;-76
2022/04/06 06:50:41;;;;;;;;;;;9.10;99.90;;;;;;5073262;28;20338;-76
2022/04/06 06:53:06;;;;;;;;;;;9.10;99.90;;;;;;5075472;28;20291;-78
2022/04/06 06:55:32;;;;;;;;;;;9.10;99.90;;;;;;5074723;28;19945;-77
2022/04/06 06:57:57;;;;;;;;;;;9.10;99.90;;;;;;5075611;28;20320;-77
2022/04/06 07:00:23;;;;;;;;;;;9.00;99.90;;;;;;5057264;28;19966;-76
2022/04/06 07:02:49;;;;;;;;;;;9.10;99.90;;;;;;5076459;28;19974;-77
2022/04/06 07:05:15;;;;;;;;;;;9.00;99.90;;;;;;5060088;28;19919;-78
2022/04/06 07:08:06;;;;;;;;;;;9.10;99.90;;;;;;5077078;28;19916;-75
2022/04/06 07:10:32;;;;;;;;;;;9.20;99.90;;;;;;5074079;28;20262;-76
2022/04/06 07:12:58;;;;;;;;;;;9.20;99.90;;;;;;5077739;28;19923;-77
2022/04/06 07:15:24;;;;;;;;;;;9.20;99.90;;;;;;5075992;28;20016;-77
2022/04/06 07:17:50;;;;;;;;;;;9.10;99.90;;;;;;5059781;28;20692;-76
2022/04/06 07:20:15;;;;;;;;;;;9.10;99.90;;;;;;5060080;28;20311;-76
2022/04/06 07:22:41;;;;;;;;;;;9.10;99.90;;;;;;5060082;28;19919;-77
2022/04/06 07:25:08;;;;;;;;;;;9.00;99.90;;;;;;5077616;28;20350;-77
2022/04/06 07:27:37;;;;;;;;;;;9.00;99.90;;;;;;5073803;28;19957;-77
2022/04/06 07:30:04;;;;;;;;;;;9.00;99.90;;;;;;5059549;28;19916;-78
2022/04/06 07:32:29;;;;;;;;;;;9.00;99.90;;;;;;5057936;28;19919;-77
2022/04/06 07:34:55;;;;;;;;;;;9.00;99.90;;;;;;5075480;28;19917;-76
2022/04/06 07:37:21;;;;;;;;;;;9.00;99.90;;;;;;5074922;28;19999;-77
2022/04/06 07:39:46;;;;;;;;;;;8.90;99.90;;;;;;5077712;28;19920;-78
2022/04/06 07:42:12;;;;;;;;;;;8.80;99.90;;;;;;5060462;28;20242;-78
2022/04/06 07:44:37;;;;;;;;;;;8.70;99.90;;;;;;5076716;28;19940;-78
2022/04/06 07:47:03;;;;;;;;;;;8.70;99.90;;;;;;5075591;28;19923;-79
2022/04/06 07:49:29;;;;;;;;;;;8.60;99.90;;;;;;5056503;28;19923;-77
2022/04/06 07:51:54;;;;;;;;;;;8.60;99.90;;;;;;5075890;28;19917;-76
2022/04/06 07:54:20;;;;;;;;;;;8.70;99.90;;;;;;5079969;28;19921;-76
2022/04/06 07:56:47;;;;;;;;;;;8.60;99.90;;;;;;5077153;28;19995;-76
2022/04/06 07:59:12;;;;;;;;;;;8.70;99.90;;;;;;5058357;28;19919;-76
2022/04/06 08:01:38;;;;;;;;;;;8.70;99.90;;;;;;5074809;28;19916;-75
2022/04/06 08:04:03;;;;;;;;;;;8.80;99.90;;;;;;5077444;28;19947;-76
2022/04/06 08:06:29;;;;;;;;;;;8.80;99.90;;;;;;5074998;28;20299;-75
2022/04/06 08:08:55;;;;;;;;;;;8.80;99.90;;;;;;5078531;28;19916;-76
2022/04/06 08:11:20;;;;;;;;;;;8.80;99.90;;;;;;5059208;28;19919;-77
2022/04/06 08:13:46;;;;;;;;;;;8.80;99.90;;;;;;5058143;28;19950;-75
2022/04/06 08:16:12;;;;;;;;;;;8.90;99.90;;;;;;5077626;28;20007;-77
2022/04/06 08:18:38;;;;;;;;;;;8.90;99.90;;;;;;5077532;28;19923;-75
2022/04/06 08:21:05;;;;;;;;;;;8.90;99.90;;;;;;5060548;28;20006;-75
2022/04/06 08:23:31;;;;;;;;;;;9.00;99.90;;;;;;5073762;28;20225;-80
2022/04/06 08:25:56;;;;;;;;;;;9.00;99.90;;;;;;5075814;28;19913;-78
2022/04/06 08:28:22;;;;;;;;;;;9.10;99.90;;;;;;5075615;28;20299;-77
2022/04/06 08:30:48;;;;;;;;;;;9.10;99.90;;;;;;5058145;28;19952;-77
2022/04/06 08:33:14;;;;;;;;;;;9.10;99.90;;;;;;5058386;28;19935;-79
2022/04/06 08:35:40;;;;;;;;;;;9.20;99.90;;;;;;5077200;28;20023;-76
2022/04/06 08:38:06;;;;;;;;;;;9.20;99.90;;;;;;5073797;28;19923;-76
2022/04/06 08:40:33;;;;;;;;;;;9.20;99.90;;;;;;5057769;28;20307;-77
2022/04/06 08:42:59;;;;;;;;;;;9.20;99.90;;;;;;5059679;28;19923;-78
2022/04/06 08:45:24;;;;;;;;;;;9.20;99.90;;;;;;5075461;28;20245;-77
2022/04/06 08:47:51;;;;;;;;;;;9.30;99.90;;;;;;5077945;28;20202;-77
2022/04/06 08:50:20;;;;;;;;;;;9.30;99.90;;;;;;5072187;28;19947;-76
2022/04/06 08:52:46;;;;;;;;;;;9.40;99.90;;;;;;5057390;28;19916;-76
2022/04/06 08:55:13;;;;;;;;;;;9.40;99.90;;;;;;5080614;28;19998;-77
2022/04/06 08:57:40;;;;;;;;;;;9.40;99.90;;;;;;5071925;28;19962;-77
2022/04/06 09:00:06;;;;;;;;;;;9.50;99.90;;;;;;5076484;28;20265;-78
2022/04/06 09:02:31;;;;;;;;;;;9.50;99.90;;;;;;5080220;28;19915;-76
2022/04/06 09:04:57;;;;;;;;;;;9.60;99.90;;;;;;5054434;28;20330;-76
2022/04/06 09:07:24;;;;;;;;;;;9.60;99.90;;;;;;5074099;28;19920;-77
2022/04/06 09:09:50;;;;;;;;;;;9.70;99.90;;;;;;5073857;28;19916;-77
2022/04/06 09:12:20;;;;;;;;;;;9.70;99.90;;;;;;5055392;28;20258;-75
2022/04/06 09:14:46;;;;;;;;;;;9.70;99.90;;;;;;5073968;28;19928;-77
2022/04/06 09:17:12;;;;;;;;;;;9.80;99.90;;;;;;5069518;28;19947;-77
2022/04/06 09:19:38;;;;;;;;;;;9.80;99.90;;;;;;5034883;28;20327;-76
2022/04/06 09:22:08;;;;;;;;;;;9.80;99.90;;;;;;5052070;28;20008;-77
2022/04/06 09:24:33;;;;;;;;;;;10.00;99.90;;;;;;5074060;28;20004;-77
2022/04/06 09:27:00;;;;;;;;;;;10.10;99.90;;;;;;5056344;28;20292;-76
2022/04/06 09:29:26;;;;;;;;;;;10.20;99.90;;;;;;5075504;28;19935;-79
2022/04/06 09:31:51;;;;;;;;;;;10.30;99.90;;;;;;5074005;28;20227;-79
2022/04/06 09:34:21;;;;;;;;;;;10.30;99.90;;;;;;5077622;28;19959;-77
2022/04/06 09:36:47;;;;;;;;;;;10.30;99.90;;;;;;5074328;28;20376;-77
2022/04/06 09:39:13;;;;;;;;;;;10.40;99.90;;;;;;5074126;28;19916;-77
2022/04/06 09:42:00;;;;;;;;;;;10.30;99.90;;;;;;5072062;28;19920;-78
2022/04/06 09:50:12;;;;;;;;;;;10.30;99.90;;;;;;5074639;28;19978;-78
2022/04/06 09:52:38;;;;;;;;;;;10.40;99.90;;;;;;5058308;28;20006;-77
2022/04/06 09:55:08;;;;;;;;;;;10.50;99.90;;;;;;5055706;28;19918;-76
2022/04/06 09:57:55;;;;;;;;;;;10.60;99.90;;;;;;5055163;28;20368;-77
2022/04/06 10:00:24;;;;;;;;;;;10.70;99.90;;;;;;5074724;28;19912;-77
2022/04/06 10:03:05;;;;;;;;;;;10.90;99.90;;;;;;5074065;28;19942;-78
2022/04/06 10:05:33;;;;;;;;;;;11.10;99.90;;;;;;5074303;28;19939;-77
2022/04/06 10:08:05;;;;;;;;;;;11.20;99.90;;;;;;5057746;28;19920;-77
2022/04/06 10:10:32;;;;;;;;;;;11.40;99.90;;;;;;5055786;28;19937;-77
2022/04/06 10:12:58;;;;;;;;;;;11.50;99.90;;;;;;5075233;28;19926;-77
2022/04/06 10:15:24;;;;;;;;;;;11.50;99.90;;;;;;5073645;28;19916;-77
2022/04/06 10:17:50;;;;;;;;;;;11.50;99.90;;;;;;5073063;28;19970;-78
2022/04/06 10:20:25;;;;;;;;;;;11.40;99.90;;;;;;5057130;28;19912;-78
2022/04/06 10:23:13;;;;;;;;;;;11.30;99.90;;;;;;5055906;28;19920;-77
2022/04/06 10:25:38;;;;;;;;;;;11.20;99.90;;;;;;5074114;28;19920;-76
2022/04/06 10:28:09;;;;;;;;;;;11.10;99.90;;;;;;5069959;28;19923;-76
2022/04/06 10:30:34;;;;;;;;;;;11.10;99.90;;;;;;5053653;28;19928;-77
2022/04/06 10:33:00;;;;;;;;;;;11.20;99.90;;;;;;5072109;28;20218;-76
2022/04/06 10:35:35;;;;;;;;;;;11.20;99.90;;;;;;5074030;28;19923;-76
2022/04/06 10:38:04;;;;;;;;;;;11.20;99.90;;;;;;5074055;28;19924;-78
2022/04/06 10:40:44;;;;;;;;;;;11.40;99.90;;;;;;5076037;28;20270;-77
2022/04/06 10:43:28;;;;;;;;;;;11.50;99.90;;;;;;5072565;28;19930;-77
2022/04/06 10:45:55;;;;;;;;;;;11.60;99.90;;;;;;5057314;28;20389;-77
2022/04/06 10:48:20;;;;;;;;;;;11.70;99.90;;;;;;5075300;28;19939;-77
2022/04/06 10:50:47;;;;;;;;;;;11.70;99.90;;;;;;5056870;28;20315;-78
2022/04/06 10:53:18;;;;;;;;;;;11.60;99.90;;;;;;5060680;28;19916;-77
2022/04/06 10:56:11;;;;;;;;;;;11.40;99.90;;;;;;5060149;28;19913;-76
2022/04/06 10:58:55;;;;;;;;;;;11.40;99.90;;;;;;5059104;28;20191;-77
2022/04/06 11:01:30;;;;;;;;;;;11.30;99.90;;;;;;5078002;28;19970;-79
2022/04/06 11:04:04;;;;;;;;;;;11.30;99.90;;;;;;5076619;28;19917;-77
2022/04/06 11:07:00;;;;;;;;;;;11.30;99.90;;;;;;5078624;28;19916;-77
2022/04/06 11:12:12;;;;;;;;;;;11.40;99.90;;;;;;5077848;28;20227;-78
2022/04/06 11:14:38;;;;;;;;;;;11.60;99.90;;;;;;5060319;28;20433;-77
2022/04/06 11:17:23;;;;;;;;;;;11.80;99.90;;;;;;5077151;28;19918;-77
2022/04/06 11:19:52;;;;;;;;;;;11.80;99.90;;;;;;5060746;28;19930;-79
2022/04/06 11:22:38;;;;;;;;;;;11.80;99.90;;;;;;5060888;28;19958;-75
2022/04/06 11:25:07;;;;;;;;;;;11.80;99.90;;;;;;5075543;28;19991;-79
2022/04/06 11:27:33;;;;;;;;;;;11.60;99.90;;;;;;5056562;28;19920;-77
2022/04/06 11:30:00;;;;;;;;;;;11.50;99.90;;;;;;5074743;28;19916;-78
2022/04/06 11:32:25;;;;;;;;;;;11.40;99.90;;;;;;5056631;28;20011;-78
2022/04/06 11:34:57;;;;;;;;;;;11.30;99.90;;;;;;5072449;28;19999;-77
2022/04/06 11:37:22;;;;;;;;;;;11.20;99.90;;;;;;5070758;28;19960;-77
2022/04/06 11:39:48;;;;;;;;;;;11.10;99.90;;;;;;5047771;28;19956;-77
2022/04/06 11:42:17;;;;;;;;;;;11.10;99.90;;;;;;5075002;28;19938;-79
2022/04/06 11:44:43;;;;;;;;;;;11.10;99.90;;;;;;5069959;28;20007;-78
2022/04/06 11:47:08;;;;;;;;;;;11.10;99.90;;;;;;5056246;28;19960;-77
2022/04/06 11:49:35;;;;;;;;;;;11.20;99.90;;;;;;5054571;28;20672;-77
2022/04/06 11:52:01;;;;;;;;;;;11.10;99.90;;;;;;5074559;28;19970;-77
2022/04/06 11:54:27;;;;;;;;;;;11.00;99.90;;;;;;5056207;28;19954;-75
2022/04/06 11:56:53;;;;;;;;;;;10.90;99.90;;;;;;5054964;28;19920;-76
2022/04/06 11:59:19;;;;;;;;;;;10.90;99.90;;;;;;5072940;28;20258;-76
2022/04/06 12:01:46;;;;;;;;;;;10.80;99.90;;;;;;5075913;28;19921;-77
2022/04/06 12:04:15;;;;;;;;;;;10.90;99.90;;;;;;5072627;28;20356;-77
2022/04/06 12:06:40;;;;;;;;;;;10.80;99.90;;;;;;5071248;28;19912;-77
2022/04/06 12:09:06;;;;;;;;;;;10.80;99.90;;;;;;5071764;28;20322;-77
2022/04/06 12:11:33;;;;;;;;;;;10.80;99.90;;;;;;5072286;28;19943;-77
2022/04/06 12:13:58;;;;;;;;;;;10.90;99.90;;;;;;5069017;28;19934;-77
2022/04/06 12:16:24;;;;;;;;;;;11.00;99.90;;;;;;5056118;28;19916;-76
2022/04/06 12:18:50;;;;;;;;;;;11.00;99.90;;;;;;5069868;28;19956;-75
2022/04/06 12:21:19;;;;;;;;;;;11.20;99.90;;;;;;5073230;28;19970;-76
2022/04/06 12:23:45;;;;;;;;;;;11.10;99.90;;;;;;5071322;28;19921;-79
2022/04/06 12:26:11;;;;;;;;;;;11.10;99.90;;;;;;5053897;28;19916;-80
2022/04/06 12:28:36;;;;;;;;;;;11.10;99.90;;;;;;5053216;28;20060;-78
2022/04/06 12:31:03;;;;;;;;;;;11.00;99.90;;;;;;5070271;28;19925;-80
2022/04/06 12:33:35;;;;;;;;;;;10.80;99.90;;;;;;5072078;28;19943;-78
2022/04/06 12:36:08;;;;;;;;;;;10.70;99.90;;;;;;5072093;28;19916;-80
2022/04/06 12:38:34;;;;;;;;;;;10.60;99.90;;;;;;5053787;28;19920;-79
2022/04/06 12:41:03;;;;;;;;;;;10.50;99.90;;;;;;5072729;28;19916;-79
2022/04/06 12:43:29;;;;;;;;;;;10.40;99.90;;;;;;5053784;28;19958;-79
2022/04/06 12:45:55;;;;;;;;;;;10.30;99.90;;;;;;5053986;28;19980;-78
2022/04/06 12:48:20;;;;;;;;;;;10.40;99.90;;;;;;5064320;28;19995;-77
2022/04/06 12:50:46;;;;;;;;;;;10.30;99.90;;;;;;5052508;28;19920;-75
2022/04/06 12:53:12;;;;;;;;;;;10.30;99.90;;;;;;5070990;28;19996;-79
2022/04/06 12:55:38;;;;;;;;;;;10.30;99.90;;;;;;5043824;28;20222;-77
2022/04/06 12:58:14;;;;;;;;;;;10.20;99.90;;;;;;5051035;28;19963;-75
2022/04/06 13:00:39;;;;;;;;;;;10.20;99.90;;;;;;5073631;28;20254;-77
2022/04/06 13:03:05;;;;;;;;;;;10.20;99.90;;;;;;5052589;28;19917;-76
2022/04/06 13:05:31;;;;;;;;;;;10.10;99.90;;;;;;5067565;28;19928;-77
2022/04/06 13:07:56;;;;;;;;;;;10.10;99.90;;;;;;5053724;28;19923;-77
2022/04/06 13:10:34;;;;;;;;;;;10.10;99.90;;;;;;5071672;28;19963;-78
2022/04/06 13:13:00;;;;;;;;;;;10.10;99.90;;;;;;5052389;28;19923;-76
2022/04/06 13:15:26;;;;;;;;;;;10.00;99.90;;;;;;5069540;28;19912;-77
2022/04/06 13:17:52;;;;;;;;;;;10.00;99.90;;;;;;5066638;28;20007;-76
2022/04/06 13:20:18;;;;;;;;;;;10.00;99.90;;;;;;5078404;28;20019;-76
2022/04/06 13:22:45;;;;;;;;;;;10.00;99.90;;;;;;5075801;28;19918;-80
2022/04/06 13:25:12;;;;;;;;;;;10.10;99.90;;;;;;5048091;28;19921;-76
2022/04/06 13:27:39;;;;;;;;;;;10.20;99.90;;;;;;5047362;28;19991;-77
2022/04/06 13:30:05;;;;;;;;;;;10.20;99.90;;;;;;5053430;28;19919;-78
2022/04/06 13:32:31;;;;;;;;;;;10.30;99.90;;;;;;5074527;28;20065;-77
2022/04/06 13:34:56;;;;;;;;;;;10.30;99.90;;;;;;5065842;28;20416;-78
2022/04/06 13:37:22;;;;;;;;;;;10.30;99.90;;;;;;5052235;28;19912;-79
2022/04/06 13:39:48;;;;;;;;;;;10.30;99.90;;;;;;5069022;28;19924;-78
2022/04/06 13:42:14;;;;;;;;;;;10.20;99.90;;;;;;5068457;28;19916;-75
2022/04/06 13:44:40;;;;;;;;;;;10.10;99.90;;;;;;5067863;28;19921;-76
2022/04/06 13:47:06;;;;;;;;;;;10.10;99.90;;;;;;5066793;28;19938;-78
2022/04/06 13:49:31;;;;;;;;;;;10.10;99.90;;;;;;5066403;28;19924;-78
2022/04/06 13:52:00;;;;;;;;;;;10.10;99.90;;;;;;5065058;28;19924;-77
2022/04/06 13:54:26;;;;;;;;;;;10.10;99.90;;;;;;5064688;28;19921;-76
2022/04/06 13:56:53;;;;;;;;;;;10.20;99.90;;;;;;5048359;28;19924;-77
2022/04/06 13:59:18;;;;;;;;;;;10.20;99.90;;;;;;5040275;28;19925;-77
2022/04/06 14:01:44;;;;;;;;;;;10.30;99.90;;;;;;5065919;28;20338;-76
2022/04/06 14:04:10;;;;;;;;;;;10.30;99.90;;;;;;5048171;28;19924;-76
2022/04/06 14:06:36;;;;;;;;;;;10.30;99.90;;;;;;5066154;28;19967;-77
2022/04/06 14:09:03;;;;;;;;;;;10.30;99.90;;;;;;5067194;28;20605;-76
2022/04/06 14:11:29;;;;;;;;;;;10.20;99.90;;;;;;5062763;28;20013;-78
2022/04/06 14:13:55;;;;;;;;;;;10.20;99.90;;;;;;5046751;28;19924;-79
2022/04/06 14:16:21;;;;;;;;;;;10.20;99.90;;;;;;5051582;28;20039;-78
2022/04/06 14:18:48;;;;;;;;;;;10.20;99.90;;;;;;5068921;28;19916;-76
2022/04/06 14:21:14;;;;;;;;;;;10.20;99.90;;;;;;5071681;28;19912;-76
2022/04/06 14:23:41;;;;;;;;;;;10.20;99.90;;;;;;5050966;28;20464;-77
2022/04/06 14:26:07;;;;;;;;;;;10.30;99.90;;;;;;5070770;28;19916;-77
2022/04/06 14:28:37;;;;;;;;;;;10.30;99.90;;;;;;5050786;28;19924;-78
2022/04/06 14:31:03;;;;;;;;;;;10.40;99.90;;;;;;5070219;28;19978;-76
2022/04/06 14:33:28;;;;;;;;;;;10.40;99.90;;;;;;5051300;28;20318;-77
2022/04/06 14:35:54;;;;;;;;;;;10.40;99.90;;;;;;5070385;28;19927;-76
2022/04/06 14:38:19;;;;;;;;;;;10.40;99.90;;;;;;5050801;28;20023;-77